createdAt,value
2022-08-18T00:03:27.377Z,22.46
2022-08-18T00:08:11.608Z,22.52
2022-08-18T00:13:10.548Z,22.60
2022-08-18T00:18:10.484Z,22.65
2022-08-18T00:23:10.417Z,22.46
2022-08-18T00:28:10.350Z,23.12
2022-08-18T00:33:10.281Z,23.62
2022-08-18T00:38:23.272Z,22.54
2022-08-18T00:43:11.152Z,21.94
2022-08-18T00:48:10.091Z,21.76
2022-08-18T00:53:10.019Z,21.26
2022-08-18T00:58:09.963Z,21.39
2022-08-18T01:03:09.887Z,21.20
2022-08-18T01:08:09.825Z,21.35
2022-08-18T01:13:09.775Z,21.72
2022-08-18T01:18:09.765Z,21.79
2022-08-18T01:23:09.625Z,21.21
2022-08-18T01:28:09.585Z,21.30
2022-08-18T01:33:09.506Z,21.54
2022-08-18T01:38:09.427Z,21.67
2022-08-18T01:43:09.388Z,21.53
2022-08-18T01:48:09.299Z,21.48
2022-08-18T01:53:09.232Z,21.74
2022-08-18T01:58:09.190Z,21.67
2022-08-18T02:03:09.281Z,21.48
2022-08-18T02:08:09.030Z,20.84
2022-08-18T02:13:08.971Z,20.59
2022-08-18T02:18:08.940Z,21.09
2022-08-18T02:23:08.853Z,21.39
2022-08-18T02:28:08.773Z,21.20
2022-08-18T02:33:08.744Z,21.05
2022-08-18T02:38:08.645Z,20.59
2022-08-18T02:43:08.605Z,20.76
2022-08-18T02:48:08.518Z,20.86
2022-08-18T02:53:08.455Z,20.89
2022-08-18T02:58:08.377Z,20.71
2022-08-18T03:03:08.320Z,21.05
2022-08-18T03:08:08.497Z,21.26
2022-08-18T03:13:08.211Z,21.39
2022-08-18T03:18:08.122Z,21.05
2022-08-18T03:23:09.883Z,20.98
2022-08-18T03:28:08.010Z,20.86
2022-08-18T03:33:07.929Z,20.38
2022-08-18T03:38:07.860Z,20.80
2022-08-18T03:43:49.535Z,20.49
2022-08-18T03:48:08.730Z,20.51
2022-08-18T03:53:07.683Z,20.35
2022-08-18T03:58:07.628Z,20.62
2022-08-18T04:03:07.542Z,20.76
2022-08-18T04:08:07.464Z,21.01
2022-08-18T04:13:07.414Z,20.91
2022-08-18T04:18:07.756Z,21.05
2022-08-18T04:23:07.286Z,20.41
2022-08-18T04:28:07.238Z,20.35
2022-08-18T04:33:07.165Z,20.35
2022-08-18T04:38:07.076Z,20.28
2022-08-18T04:43:07.043Z,20.33
2022-08-18T04:48:06.959Z,20.47
2022-08-18T04:53:06.932Z,21.19
2022-08-18T04:58:06.808Z,22.09
2022-08-18T05:03:06.750Z,23.35
2022-08-18T05:08:06.709Z,24.52
2022-08-18T05:13:06.639Z,25.50
2022-08-18T05:18:06.744Z,25.68
2022-08-18T05:23:07.522Z,25.56
2022-08-18T05:28:06.442Z,24.79
2022-08-18T05:33:06.371Z,24.34
2022-08-18T05:38:06.300Z,24.13
2022-08-18T05:43:06.273Z,23.85
2022-08-18T05:48:06.183Z,24.69
2022-08-18T05:53:13.159Z,25.54
2022-08-18T05:58:07.048Z,27.39
2022-08-18T06:03:06.058Z,29.00
2022-08-18T06:08:05.931Z,29.96
2022-08-18T06:13:05.888Z,30.87
2022-08-18T06:18:05.795Z,31.70
2022-08-18T06:23:05.880Z,32.43
2022-08-18T06:28:05.680Z,32.95
2022-08-18T06:33:05.636Z,33.07
2022-08-18T06:38:05.567Z,33.17
2022-08-18T06:43:05.519Z,33.51
2022-08-18T06:48:05.440Z,33.53
2022-08-18T06:53:06.402Z,33.45
2022-08-18T06:58:06.361Z,33.45
2022-08-18T07:03:05.281Z,33.73
2022-08-18T07:08:05.225Z,34.05
2022-08-18T07:13:05.203Z,32.99
2022-08-18T07:18:05.142Z,32.51
2022-08-18T07:23:07.926Z,31.95
2022-08-18T07:28:05.170Z,31.11
2022-08-18T07:33:04.951Z,30.80
2022-08-18T07:38:24.585Z,30.47
2022-08-18T07:43:05.798Z,30.27
2022-08-18T07:48:20.780Z,30.08
2022-08-18T07:53:05.989Z,30.09
2022-08-18T07:58:04.607Z,29.94
2022-08-18T08:03:04.560Z,29.89
2022-08-18T08:08:04.533Z,29.89
2022-08-18T08:13:09.259Z,29.84
2022-08-18T08:18:05.343Z,29.79
2022-08-18T08:23:04.285Z,29.74
2022-08-18T08:28:04.213Z,29.65
2022-08-18T08:33:04.337Z,29.68
2022-08-18T08:38:23.230Z,30.08
2022-08-18T08:43:05.051Z,30.68
2022-08-18T08:48:08.732Z,32.18
2022-08-18T08:53:04.908Z,33.39
2022-08-18T08:58:03.850Z,34.34
2022-08-18T09:03:03.773Z,34.44
2022-08-18T09:08:03.733Z,33.83
2022-08-18T09:13:03.687Z,33.48
2022-08-18T09:18:03.627Z,33.26
2022-08-18T09:23:03.576Z,33.30
2022-08-18T09:28:11.619Z,33.10
2022-08-18T09:33:04.457Z,32.48
2022-08-18T09:38:04.553Z,32.27
2022-08-18T09:43:03.610Z,31.95
2022-08-18T09:48:04.251Z,32.15
2022-08-18T09:53:04.548Z,32.14
2022-08-18T09:58:03.122Z,32.25
2022-08-18T10:03:03.055Z,32.40
2022-08-18T10:08:03.458Z,32.43
2022-08-18T10:13:02.956Z,32.64
2022-08-18T10:18:02.870Z,32.67
2022-08-18T10:23:02.810Z,32.51
2022-08-18T10:28:02.764Z,31.99
2022-08-18T10:33:15.237Z,31.91
2022-08-18T10:38:03.605Z,31.87
2022-08-18T10:43:10.705Z,31.79
2022-08-18T10:48:03.484Z,31.02
2022-08-18T10:53:24.811Z,30.72
2022-08-18T10:58:03.349Z,30.78
2022-08-18T11:03:21.066Z,30.47
2022-08-18T11:08:03.244Z,30.37
2022-08-18T11:18:04.384Z,30.30
2022-08-18T11:23:02.054Z,30.30
2022-08-18T11:28:01.995Z,30.52
2022-08-18T11:33:02.865Z,30.40
2022-08-18T11:38:01.859Z,30.56
2022-08-18T11:43:01.788Z,30.61
2022-08-18T11:48:01.980Z,30.36
2022-08-18T11:53:01.659Z,30.02
2022-08-18T11:58:01.628Z,29.99
2022-08-18T12:03:01.532Z,29.84
2022-08-18T12:08:01.625Z,29.57
2022-08-18T12:13:01.511Z,29.33
2022-08-18T12:18:01.338Z,29.20
2022-08-18T12:23:01.275Z,29.31
2022-08-18T12:28:01.218Z,29.63
2022-08-18T12:33:10.201Z,29.74
2022-08-18T12:38:04.882Z,29.89
2022-08-18T12:43:02.019Z,30.24
2022-08-18T12:48:00.961Z,30.65
2022-08-18T12:53:01.006Z,30.76
2022-08-18T12:58:00.845Z,30.16
2022-08-18T13:03:00.767Z,29.75
2022-08-18T13:08:00.715Z,29.78
2022-08-18T13:13:00.657Z,30.07
2022-08-18T13:18:00.579Z,30.45
2022-08-18T13:23:00.562Z,30.57
2022-08-18T13:28:00.704Z,30.31
2022-08-18T13:33:05.815Z,30.31
2022-08-18T13:38:04.168Z,30.38
2022-08-18T13:43:01.410Z,30.57
2022-08-18T13:48:00.214Z,30.62
2022-08-18T13:53:00.244Z,30.68
2022-08-18T13:58:00.673Z,30.94
2022-08-18T14:03:00.038Z,31.06
2022-08-18T14:07:59.952Z,31.06
2022-08-18T14:12:59.888Z,31.09
2022-08-18T14:17:59.830Z,30.86
2022-08-18T14:22:59.771Z,30.57
2022-08-18T14:27:59.704Z,30.16
2022-08-18T14:32:59.799Z,29.94
2022-08-18T14:37:59.603Z,30.16
2022-08-18T14:42:59.515Z,29.81
2022-08-18T14:47:59.463Z,29.81
2022-08-18T14:52:59.355Z,29.74
2022-08-18T14:57:59.714Z,29.75
2022-08-18T15:02:59.812Z,29.62
2022-08-18T15:07:59.165Z,29.33
2022-08-18T15:12:59.127Z,29.26
2022-08-18T15:17:59.037Z,29.29
2022-08-18T15:22:59.002Z,29.11
2022-08-18T15:27:58.976Z,29.26
2022-08-18T15:32:58.845Z,29.20
2022-08-18T15:37:58.826Z,29.11
2022-08-18T15:42:58.739Z,29.26
2022-08-18T15:47:58.690Z,29.19
2022-08-18T15:52:58.756Z,29.13
2022-08-18T15:57:58.853Z,29.06
2022-08-18T16:02:58.507Z,28.96
2022-08-18T16:07:58.717Z,28.91
2022-08-18T16:12:58.424Z,28.84
2022-08-18T16:17:58.318Z,28.80
2022-08-18T16:22:58.217Z,28.80
2022-08-18T16:27:58.160Z,28.72
2022-08-18T16:32:58.160Z,28.58
2022-08-18T16:37:58.051Z,28.53
2022-08-18T16:42:57.988Z,28.46
2022-08-18T16:47:57.907Z,28.40
2022-08-18T16:52:57.847Z,28.29
2022-08-18T16:57:57.784Z,28.11
2022-08-18T17:02:57.742Z,28.09
2022-08-18T17:07:57.665Z,28.04
2022-08-18T17:12:57.763Z,27.99
2022-08-18T17:17:57.546Z,27.89
2022-08-18T17:22:57.435Z,27.86
2022-08-18T17:27:57.394Z,27.76
2022-08-18T17:32:57.393Z,27.61
2022-08-18T17:37:57.275Z,27.54
2022-08-18T17:42:57.220Z,27.53
2022-08-18T17:47:57.187Z,27.39
2022-08-18T17:52:57.082Z,27.33
2022-08-18T17:57:58.662Z,27.23
2022-08-18T18:02:57.174Z,27.19
2022-08-18T18:07:56.877Z,27.04
2022-08-18T18:12:56.825Z,27.04
2022-08-18T18:17:57.022Z,27.01
2022-08-18T18:22:56.699Z,26.94
2022-08-18T18:27:56.609Z,26.81
2022-08-18T18:32:59.516Z,26.57
2022-08-18T18:37:56.481Z,26.37
2022-08-18T18:42:56.414Z,26.18
2022-08-18T18:47:56.346Z,25.79
2022-08-18T18:52:56.288Z,25.42
2022-08-18T18:57:56.279Z,25.27
2022-08-18T19:02:56.156Z,25.24
2022-08-18T19:07:56.091Z,25.13
2022-08-18T19:12:56.787Z,25.28
2022-08-18T19:17:55.994Z,25.19
2022-08-18T19:22:55.942Z,25.12
2022-08-18T19:27:56.232Z,25.54
2022-08-18T19:32:55.798Z,25.87
2022-08-18T19:37:55.704Z,26.22
2022-08-18T19:42:55.653Z,26.06
2022-08-18T19:47:55.596Z,26.29
2022-08-18T19:52:55.528Z,26.17
2022-08-18T19:57:55.573Z,26.06
2022-08-18T20:02:55.377Z,26.22
2022-08-18T20:07:55.843Z,25.74
2022-08-18T20:12:55.269Z,25.56
2022-08-18T20:17:55.295Z,25.56
2022-08-18T20:22:57.217Z,25.43
2022-08-18T20:27:55.259Z,25.13
2022-08-18T20:32:55.000Z,25.22
2022-08-18T20:37:55.040Z,25.65
2022-08-18T20:42:56.415Z,25.52
2022-08-18T20:47:55.822Z,25.27
2022-08-18T20:52:54.733Z,25.31
2022-08-18T20:57:55.604Z,25.31
2022-08-18T21:02:54.665Z,25.61
2022-08-18T21:07:54.548Z,25.44
2022-08-18T21:12:54.761Z,25.32
2022-08-18T21:17:56.934Z,25.32
2022-08-18T21:22:54.355Z,25.30
2022-08-18T21:27:54.285Z,25.46
2022-08-18T21:32:54.476Z,25.25
2022-08-18T21:37:54.153Z,25.02
2022-08-18T21:42:54.145Z,25.35
2022-08-18T21:47:54.038Z,25.05
2022-08-18T21:52:54.126Z,25.07
2022-08-18T21:57:53.894Z,25.27
2022-08-18T22:02:53.965Z,25.47
2022-08-18T22:07:53.751Z,24.97
2022-08-18T22:12:53.929Z,24.73
2022-08-18T22:17:53.652Z,24.95
2022-08-18T22:22:53.755Z,25.00
2022-08-18T22:27:53.519Z,25.13
2022-08-18T22:32:53.581Z,25.10
2022-08-18T22:37:53.458Z,25.12
2022-08-18T22:42:53.516Z,25.13
2022-08-18T22:47:53.219Z,25.22
2022-08-18T22:52:53.354Z,25.01
2022-08-18T22:57:55.730Z,25.06
2022-08-18T23:02:53.556Z,25.07
2022-08-18T23:07:52.949Z,25.00
2022-08-18T23:12:52.975Z,24.56
2022-08-18T23:17:52.832Z,24.64
2022-08-18T23:22:52.788Z,24.82
2022-08-18T23:27:52.684Z,24.94
2022-08-18T23:32:52.794Z,24.87
2022-08-18T23:37:52.576Z,24.80
2022-08-18T23:42:52.666Z,24.79
2022-08-18T23:47:52.438Z,24.50
2022-08-18T23:52:52.443Z,24.63
2022-08-18T23:57:52.280Z,24.68
